Time;durP1;ratioP1;P1;durP2;ratioP2;P2;SDS_P1;SDS_P2;PMS_P1;PMS_P2;Temp;Humidity;BMP_temperature;BMP_pressure;BME280_temperature;BME280_humidity;BME280_pressure;Samples;Min_cycle;Max_cycle;Signal;HPM_P1;HPM_P2
2021/08/17 00:01:09;;;;;;;6.05;1.70;;;13.40;91.90;;;;;;4969634;28;20030;-83
2021/08/17 00:03:34;;;;;;;10.80;2.25;;;13.40;91.90;;;;;;4996086;28;20026;-84
2021/08/17 00:06:01;;;;;;;10.38;2.70;;;13.40;92.00;;;;;;4975211;28;20386;-84
2021/08/17 00:08:28;;;;;;;10.45;2.38;;;13.40;92.00;;;;;;5001719;28;20493;-84
2021/08/17 00:10:54;;;;;;;5.43;1.70;;;13.40;91.90;;;;;;4995358;28;20494;-81
2021/08/17 00:13:20;;;;;;;8.73;2.00;;;13.40;92.00;;;;;;5001036;28;20040;-80
2021/08/17 00:15:46;;;;;;;7.82;2.95;;;13.40;92.20;;;;;;4968870;28;20525;-83
2021/08/17 00:18:12;;;;;;;6.95;3.25;;;13.40;92.20;;;;;;4972596;28;20045;-84
2021/08/17 00:20:38;;;;;;;10.98;3.13;;;13.30;92.20;;;;;;4984264;28;20035;-83
2021/08/17 00:23:05;;;;;;;8.90;2.92;;;13.30;92.30;;;;;;4971301;28;20084;-81
2021/08/17 00:25:31;;;;;;;1.73;0.98;;;13.30;92.40;;;;;;5019404;28;20037;-83
2021/08/17 00:27:57;;;;;;;6.97;2.90;;;13.30;92.50;;;;;;4970827;28;20041;-82
2021/08/17 00:30:22;;;;;;;11.18;2.45;;;13.20;92.40;;;;;;5021770;28;20038;-84
2021/08/17 00:32:48;;;;;;;10.13;3.35;;;13.20;92.40;;;;;;5004444;28;20028;-84
2021/08/17 00:35:13;;;;;;;13.50;3.30;;;13.20;92.40;;;;;;5015132;28;20154;-83
2021/08/17 00:37:39;;;;;;;4.00;1.20;;;13.20;92.40;;;;;;4974835;28;20137;-82
2021/08/17 00:40:05;;;;;;;16.08;2.92;;;13.00;92.30;;;;;;4992668;28;20658;-81
2021/08/17 00:42:32;;;;;;;5.25;2.25;;;13.10;92.70;;;;;;5016435;28;20030;-81
2021/08/17 00:45:02;;;;;;;5.75;2.28;;;13.00;92.60;;;;;;5006809;28;20050;-83
2021/08/17 00:47:27;;;;;;;12.20;5.00;;;13.00;92.90;;;;;;4977811;28;20056;-83
2021/08/17 00:49:55;;;;;;;8.85;2.15;;;13.00;93.00;;;;;;4992671;28;20022;-82
2021/08/17 00:52:20;;;;;;;10.52;3.70;;;12.90;93.20;;;;;;5005249;28;20022;-83
2021/08/17 00:54:46;;;;;;;9.25;3.60;;;12.90;93.00;;;;;;4976575;28;20026;-83
2021/08/17 00:57:12;;;;;;;8.25;2.58;;;12.90;93.10;;;;;;4986443;28;20027;-83
2021/08/17 00:59:37;;;;;;;9.90;3.25;;;12.70;93.30;;;;;;4993810;28;20084;-83
2021/08/17 01:02:03;;;;;;;5.22;2.42;;;12.80;93.30;;;;;;5003213;28;20129;-83
2021/08/17 01:04:29;;;;;;;14.80;3.97;;;12.80;93.30;;;;;;4992386;28;20048;-83
2021/08/17 01:06:54;;;;;;;9.90;3.83;;;12.80;93.40;;;;;;4992728;28;20064;-83
2021/08/17 01:09:20;;;;;;;10.18;3.90;;;12.70;93.30;;;;;;4989122;28;20108;-82
2021/08/17 01:11:47;;;;;;;13.98;3.22;;;12.70;93.70;;;;;;5001154;28;20371;-83
2021/08/17 01:14:17;;;;;;;8.52;3.45;;;12.70;93.30;;;;;;4990448;28;20099;-83
2021/08/17 01:16:43;;;;;;;11.27;4.28;;;12.60;93.60;;;;;;5022672;28;20562;-83
2021/08/17 01:19:10;;;;;;;8.50;4.15;;;12.60;94.00;;;;;;4975366;28;20054;-83
2021/08/17 01:21:35;;;;;;;11.35;3.47;;;12.50;93.30;;;;;;4974330;28;20045;-83
2021/08/17 01:24:01;;;;;;;7.22;3.53;;;12.40;93.60;;;;;;4994966;28;20033;-83
2021/08/17 01:26:27;;;;;;;9.95;2.42;;;12.50;93.80;;;;;;5002486;28;20403;-83
2021/08/17 01:28:52;;;;;;;7.72;2.92;;;12.40;93.50;;;;;;4988513;28;20042;-83
2021/08/17 01:31:18;;;;;;;8.95;3.40;;;12.40;93.80;;;;;;4973355;28;20026;-83
2021/08/17 01:33:43;;;;;;;10.82;3.50;;;12.30;93.70;;;;;;4984089;28;20041;-83
2021/08/17 01:36:09;;;;;;;10.30;4.30;;;12.30;93.90;;;;;;4993366;28;20037;-82
2021/08/17 01:38:47;;;;;;;10.55;3.20;;;12.30;94.10;;;;;;4992079;28;20030;-83
2021/08/17 01:41:13;;;;;;;12.07;4.50;;;12.20;94.20;;;;;;5001907;28;20061;-83
2021/08/17 01:43:39;;;;;;;9.68;3.70;;;12.10;94.00;;;;;;5009257;28;20737;-83
2021/08/17 01:46:04;;;;;;;6.90;2.67;;;12.10;94.10;;;;;;4978479;28;20528;-82
2021/08/17 01:48:31;;;;;;;6.35;2.00;;;12.10;94.40;;;;;;4990966;28;20488;-82
2021/08/17 01:50:56;;;;;;;11.35;4.55;;;12.10;94.40;;;;;;4974102;28;20113;-83
2021/08/17 01:53:31;;;;;;;9.68;3.92;;;12.00;94.70;;;;;;5005254;28;20117;-83
2021/08/17 01:55:57;;;;;;;7.82;2.80;;;12.00;94.40;;;;;;4990225;28;20030;-83
2021/08/17 01:58:26;;;;;;;10.95;4.32;;;12.00;94.60;;;;;;4970360;28;20033;-83
2021/08/17 02:00:51;;;;;;;6.75;3.08;;;12.00;94.10;;;;;;4974776;28;20038;-82
2021/08/17 02:03:17;;;;;;;8.90;4.00;;;12.00;94.60;;;;;;5013609;28;20117;-83
2021/08/17 02:05:43;;;;;;;11.88;4.50;;;11.90;94.50;;;;;;5021993;28;20603;-83
2021/08/17 02:08:09;;;;;;;11.10;5.93;;;11.90;94.30;;;;;;4992097;28;20034;-83
2021/08/17 02:10:35;;;;;;;14.20;5.03;;;11.90;94.70;;;;;;4990001;28;20026;-83
2021/08/17 02:13:01;;;;;;;10.32;4.07;;;11.90;94.70;;;;;;5007326;28;20042;-82
2021/08/17 02:15:26;;;;;;;12.20;6.15;;;11.80;94.90;;;;;;4975464;28;20371;-83
2021/08/17 02:17:52;;;;;;;8.68;4.50;;;11.90;95.20;;;;;;4975155;28;20034;-81
2021/08/17 02:20:17;;;;;;;8.57;3.97;;;11.90;95.40;;;;;;5006653;28;20037;-83
2021/08/17 02:22:43;;;;;;;8.75;2.53;;;11.90;95.00;;;;;;5001782;28;20149;-82
2021/08/17 02:25:09;;;;;;;11.63;4.75;;;11.90;95.10;;;;;;4974968;28;20091;-82
2021/08/17 02:27:35;;;;;;;18.13;6.45;;;11.80;95.00;;;;;;4972256;28;20073;-82
2021/08/17 02:30:02;;;;;;;11.07;4.28;;;11.90;95.20;;;;;;4983214;28;20443;-83
2021/08/17 02:32:27;;;;;;;17.42;6.88;;;11.90;95.00;;;;;;4975700;28;20740;-83
2021/08/17 02:34:53;;;;;;;16.70;6.45;;;11.80;94.90;;;;;;5004945;28;20026;-84
2021/08/17 02:37:18;;;;;;;27.95;10.63;;;11.90;95.20;;;;;;5001105;28;20022;-83
2021/08/17 02:39:44;;;;;;;15.77;6.50;;;11.70;95.10;;;;;;4971978;28;20536;-83
2021/08/17 02:42:09;;;;;;;17.38;7.00;;;11.70;95.40;;;;;;4971615;28;20165;-83
2021/08/17 02:44:35;;;;;;;17.42;7.20;;;11.60;95.60;;;;;;5012286;28;20062;-82
2021/08/17 02:47:00;;;;;;;24.45;11.32;;;11.70;95.30;;;;;;5001888;28;20113;-82
2021/08/17 02:49:26;;;;;;;26.25;10.35;;;11.70;95.50;;;;;;5015922;28;20065;-83
2021/08/17 02:51:51;;;;;;;22.83;10.10;;;11.60;95.50;;;;;;5023984;28;20034;-82
2021/08/17 02:54:17;;;;;;;28.80;13.55;;;11.60;95.70;;;;;;4986737;28;20036;-82
2021/08/17 02:56:42;;;;;;;25.50;9.20;;;11.70;96.00;;;;;;4972207;28;20040;-83
2021/08/17 02:59:08;;;;;;;21.60;9.35;;;11.70;96.00;;;;;;4969558;28;20123;-83
2021/08/17 03:01:34;;;;;;;26.73;11.07;;;11.70;95.80;;;;;;4969472;28;20115;-82
2021/08/17 03:04:06;;;;;;;16.83;6.78;;;11.70;95.80;;;;;;4972253;28;20490;-82
2021/08/17 03:06:32;;;;;;;29.42;11.82;;;11.70;95.70;;;;;;4997234;28;20027;-83
2021/08/17 03:08:57;;;;;;;28.35;11.88;;;11.70;96.10;;;;;;4988055;28;20048;-83
2021/08/17 03:11:25;;;;;;;41.03;16.33;;;11.70;96.00;;;;;;4989942;28;20400;-83
2021/08/17 03:13:50;;;;;;;27.25;11.18;;;11.80;95.80;;;;;;5018050;28;20034;-83
2021/08/17 03:16:19;;;;;;;31.38;12.88;;;11.80;95.90;;;;;;5007674;28;20042;-84
2021/08/17 03:18:44;;;;;;;25.30;10.77;;;11.80;96.00;;;;;;4989469;28;20475;-84
2021/08/17 03:21:12;;;;;;;24.40;10.77;;;11.70;96.10;;;;;;4989932;28;20045;-83
2021/08/17 03:23:38;;;;;;;16.38;6.57;;;11.70;96.10;;;;;;4988428;28;20030;-83
2021/08/17 03:26:03;;;;;;;30.23;12.80;;;11.70;96.30;;;;;;5006307;28;20125;-83
2021/08/17 03:28:29;;;;;;;35.28;15.88;;;11.70;96.20;;;;;;4974404;28;20061;-83
2021/08/17 03:30:54;;;;;;;19.70;7.50;;;11.80;96.50;;;;;;4975144;28;20110;-84
2021/08/17 03:33:20;;;;;;;31.70;14.48;;;11.70;96.40;;;;;;5022685;28;20935;-83
2021/08/17 03:35:46;;;;;;;38.55;15.60;;;11.80;96.40;;;;;;4978672;28;20033;-82
2021/08/17 03:38:12;;;;;;;36.53;15.20;;;11.80;96.40;;;;;;5004827;28;20036;-83
2021/08/17 03:40:51;;;;;;;31.33;12.68;;;11.70;96.40;;;;;;4973804;28;20034;-81
2021/08/17 03:43:16;;;;;;;32.10;13.23;;;11.80;96.50;;;;;;4971005;28;20079;-84
2021/08/17 03:45:42;;;;;;;29.48;12.77;;;11.80;96.60;;;;;;4996319;28;20026;-83
2021/08/17 03:48:07;;;;;;;28.73;11.48;;;11.80;96.40;;;;;;4977516;28;20034;-83
2021/08/17 03:50:33;;;;;;;29.52;10.70;;;11.70;96.40;;;;;;4989227;28;20040;-82
2021/08/17 03:52:58;;;;;;;30.45;9.60;;;11.80;96.60;;;;;;4969692;28;20089;-83
2021/08/17 03:55:24;;;;;;;34.53;12.68;;;11.80;96.60;;;;;;5019244;28;20026;-82
2021/08/17 03:57:50;;;;;;;26.00;10.90;;;11.80;96.60;;;;;;5019295;28;20037;-83
2021/08/17 04:00:19;;;;;;;39.63;15.63;;;11.70;96.40;;;;;;4995806;28;20033;-83
2021/08/17 04:02:45;;;;;;;27.23;12.50;;;11.70;96.80;;;;;;4983970;28;20101;-83
2021/08/17 04:05:10;;;;;;;41.55;16.00;;;11.80;96.50;;;;;;4979398;28;20831;-83
2021/08/17 04:07:36;;;;;;;43.63;17.77;;;11.80;96.70;;;;;;4971741;28;20109;-83
2021/08/17 04:10:03;;;;;;;35.60;14.88;;;11.90;96.60;;;;;;4986508;28;20037;-83
2021/08/17 04:12:28;;;;;;;29.57;12.63;;;11.80;96.70;;;;;;4329247;28;10000184;-83
2021/08/17 04:14:54;;;;;;;39.80;16.00;;;11.80;96.80;;;;;;4986255;28;20281;-82
2021/08/17 04:17:19;;;;;;;44.65;16.60;;;11.90;96.60;;;;;;5004877;28;20462;-82
2021/08/17 04:19:45;;;;;;;23.92;10.07;;;11.90;96.50;;;;;;5004810;28;20025;-82
2021/08/17 04:22:11;;;;;;;33.17;10.45;;;11.90;97.00;;;;;;5006391;28;20494;-81
2021/08/17 04:24:36;;;;;;;35.42;13.70;;;11.90;97.00;;;;;;5022077;28;20057;-81
2021/08/17 04:27:03;;;;;;;39.40;17.42;;;11.90;96.90;;;;;;5022150;28;20030;-81
2021/08/17 04:29:28;;;;;;;36.58;14.57;;;11.90;96.90;;;;;;5003918;28;20527;-82
2021/08/17 04:31:54;;;;;;;38.42;16.65;;;11.90;96.70;;;;;;4985049;28;20034;-81
2021/08/17 04:34:20;;;;;;;50.10;19.95;;;11.90;96.90;;;;;;5023965;28;20041;-81
2021/08/17 04:36:47;;;;;;;34.80;13.43;;;11.90;96.80;;;;;;4959828;28;20042;-82
2021/08/17 04:39:13;;;;;;;45.15;17.10;;;11.90;96.90;;;;;;5000747;28;20153;-82
2021/08/17 04:41:38;;;;;;;47.20;19.83;;;12.00;97.10;;;;;;4987964;28;20038;-81
2021/08/17 04:44:04;;;;;;;44.53;18.55;;;12.00;97.20;;;;;;5014832;28;20077;-82
2021/08/17 04:46:29;;;;;;;19.65;7.28;;;12.00;97.10;;;;;;4973854;28;20497;-80
2021/08/17 04:48:55;;;;;;;33.88;12.02;;;12.10;97.20;;;;;;4972005;28;20035;-82
2021/08/17 04:51:20;;;;;;;41.58;16.77;;;12.10;97.20;;;;;;4997205;28;20030;-80
2021/08/17 04:53:46;;;;;;;39.03;15.38;;;12.10;97.50;;;;;;4984974;28;20032;-81
2021/08/17 04:56:11;;;;;;;40.17;14.25;;;12.20;97.20;;;;;;5020351;28;20492;-82
2021/08/17 04:58:37;;;;;;;34.65;14.60;;;12.20;97.10;;;;;;4994231;28;20458;-81
2021/08/17 05:01:02;;;;;;;34.55;16.17;;;12.20;97.10;;;;;;4997121;28;20536;-81
2021/08/17 05:03:28;;;;;;;37.15;14.52;;;12.10;97.10;;;;;;4998410;28;20117;-81
2021/08/17 05:05:54;;;;;;;42.60;18.23;;;12.20;97.20;;;;;;4985993;28;20065;-81
2021/08/17 05:08:19;;;;;;;46.08;18.55;;;12.30;97.30;;;;;;4997606;28;20111;-82
2021/08/17 05:10:45;;;;;;;45.20;18.80;;;12.30;97.30;;;;;;5002052;28;20029;-82
2021/08/17 05:13:10;;;;;;;51.35;20.73;;;12.40;97.30;;;;;;5004745;28;20035;-81
2021/08/17 05:15:36;;;;;;;38.08;12.73;;;12.40;97.80;;;;;;5013805;28;20571;-81
2021/08/17 05:18:02;;;;;;;37.58;15.60;;;12.40;97.40;;;;;;5003020;28;20045;-82
2021/08/17 05:20:28;;;;;;;39.70;17.80;;;12.50;97.50;;;;;;5017464;28;20136;-82
2021/08/17 05:22:53;;;;;;;31.95;14.38;;;12.50;97.20;;;;;;4987048;28;20160;-83
2021/08/17 05:25:19;;;;;;;44.63;16.98;;;12.60;97.30;;;;;;5003107;28;20038;-82
2021/08/17 05:27:44;;;;;;;27.95;12.35;;;12.70;97.10;;;;;;5010555;28;20042;-81
2021/08/17 05:30:10;;;;;;;28.92;12.50;;;12.70;97.30;;;;;;5005879;28;20037;-82
2021/08/17 05:32:36;;;;;;;31.20;12.02;;;12.70;97.30;;;;;;4972711;28;20079;-81
2021/08/17 05:35:02;;;;;;;44.00;20.35;;;12.70;97.20;;;;;;4983115;28;20117;-81
2021/08/17 05:37:28;;;;;;;48.25;21.65;;;12.80;97.30;;;;;;5019470;28;20385;-82
2021/08/17 05:39:53;;;;;;;39.25;17.98;;;12.80;97.20;;;;;;5005230;28;20026;-81
2021/08/17 05:42:19;;;;;;;27.58;12.25;;;12.80;96.90;;;;;;5022843;28;20044;-81
2021/08/17 05:44:45;;;;;;;41.17;17.48;;;12.80;97.20;;;;;;4971616;28;20042;-81
2021/08/17 05:47:11;;;;;;;40.63;20.27;;;12.90;97.30;;;;;;5004705;28;20509;-81
2021/08/17 05:49:37;;;;;;;37.40;16.00;;;12.80;97.30;;;;;;4997366;28;20038;-81
2021/08/17 05:52:07;;;;;;;57.03;23.42;;;12.90;97.40;;;;;;4987018;28;20047;-82
2021/08/17 05:54:32;;;;;;;46.33;19.00;;;12.90;97.20;;;;;;5017931;28;20105;-82
2021/08/17 05:56:58;;;;;;;31.88;13.15;;;12.90;97.40;;;;;;4997022;28;20034;-82
2021/08/17 05:59:27;;;;;;;39.72;15.95;;;13.00;97.60;;;;;;4998825;28;20053;-82
2021/08/17 06:01:54;;;;;;;41.47;17.85;;;13.00;97.40;;;;;;4963743;28;20087;-82
2021/08/17 06:04:20;;;;;;;35.00;15.15;;;13.10;97.30;;;;;;4998421;28;20100;-81
2021/08/17 06:06:47;;;;;;;44.88;21.67;;;13.10;97.40;;;;;;4988422;28;20085;-82
2021/08/17 06:09:12;;;;;;;25.23;10.73;;;13.20;97.30;;;;;;4990279;28;20037;-82
2021/08/17 06:11:38;;;;;;;54.58;20.45;;;13.20;97.50;;;;;;4968840;28;20509;-82
2021/08/17 06:14:03;;;;;;;54.05;22.35;;;13.30;97.30;;;;;;5004774;28;20088;-82
2021/08/17 06:16:29;;;;;;;43.85;18.75;;;13.30;97.20;;;;;;5004782;28;20036;-82
2021/08/17 06:18:55;;;;;;;33.17;14.35;;;13.30;97.40;;;;;;4985067;28;20036;-81
2021/08/17 06:21:21;;;;;;;49.55;21.00;;;13.40;97.50;;;;;;4983429;28;20046;-82
2021/08/17 06:23:47;;;;;;;43.03;20.38;;;13.40;97.40;;;;;;4968668;28;20470;-80
2021/08/17 06:26:12;;;;;;;45.30;23.08;;;13.40;97.20;;;;;;5002950;28;20560;-82
2021/08/17 06:28:40;;;;;;;47.50;21.17;;;13.50;97.50;;;;;;4979548;28;20038;-82
2021/08/17 06:31:06;;;;;;;41.03;17.67;;;13.50;97.50;;;;;;4984246;28;20093;-83
2021/08/17 06:33:31;;;;;;;54.67;25.55;;;13.60;97.60;;;;;;4984123;28;20551;-82
2021/08/17 06:35:57;;;;;;;54.83;23.50;;;13.70;97.50;;;;;;4987639;28;20156;-82
2021/08/17 06:38:22;;;;;;;47.65;22.00;;;13.80;97.60;;;;;;4989003;28;20029;-81
2021/08/17 06:40:48;;;;;;;54.50;24.05;;;13.90;97.70;;;;;;5001159;28;20229;-82
2021/08/17 06:43:13;;;;;;;44.10;20.70;;;14.10;97.80;;;;;;4999211;28;20068;-82
2021/08/17 06:45:39;;;;;;;46.47;22.92;;;14.20;97.80;;;;;;4985989;28;20109;-81
2021/08/17 06:48:04;;;;;;;55.78;24.45;;;14.30;97.20;;;;;;4985300;28;20555;-82
2021/08/17 06:50:30;;;;;;;63.08;29.10;;;14.40;97.50;;;;;;5011947;28;20497;-82
2021/08/17 06:52:55;;;;;;;57.78;26.02;;;14.60;97.20;;;;;;5000797;28;20031;-82
2021/08/17 06:55:22;;;;;;;58.72;27.10;;;14.60;97.20;;;;;;5018349;28;20038;-82
2021/08/17 06:57:47;;;;;;;61.22;26.90;;;14.70;97.20;;;;;;5001181;28;20041;-82
2021/08/17 07:00:13;;;;;;;62.58;28.77;;;14.90;96.70;;;;;;4993615;28;20038;-82
2021/08/17 07:02:39;;;;;;;51.17;20.08;;;15.00;97.60;;;;;;4999147;28;20036;-82
2021/08/17 07:05:05;;;;;;;51.97;25.27;;;15.10;96.80;;;;;;4997081;28;20184;-81
2021/08/17 07:07:31;;;;;;;45.60;21.33;;;15.20;96.50;;;;;;4984980;28;20022;-81
2021/08/17 07:09:56;;;;;;;36.13;13.25;;;15.20;96.60;;;;;;5000203;28;20035;-81
2021/08/17 07:12:22;;;;;;;52.50;24.95;;;15.40;96.80;;;;;;5018292;28;20026;-81
2021/08/17 07:14:47;;;;;;;53.28;25.75;;;15.50;96.30;;;;;;4981947;28;20477;-82
2021/08/17 07:17:13;;;;;;;37.10;15.95;;;15.70;96.50;;;;;;4969290;28;20026;-82
2021/08/17 07:19:38;;;;;;;40.63;16.25;;;15.80;96.50;;;;;;5017935;28;20365;-81
2021/08/17 07:22:04;;;;;;;56.50;18.88;;;16.00;96.50;;;;;;5018259;28;20540;-79
2021/08/17 07:24:29;;;;;;;28.73;13.63;;;16.00;96.80;;;;;;5009874;28;20041;-82
2021/08/17 07:26:55;;;;;;;43.25;19.80;;;16.10;96.40;;;;;;4998971;28;20117;-82
2021/08/17 07:29:21;;;;;;;42.28;21.65;;;16.30;96.70;;;;;;4997969;28;20497;-81
2021/08/17 07:31:47;;;;;;;39.60;17.58;;;16.40;95.90;;;;;;4984594;28;20061;-82
2021/08/17 07:34:12;;;;;;;23.85;10.48;;;16.40;96.50;;;;;;4984841;28;20034;-82
2021/08/17 07:36:38;;;;;;;47.85;21.27;;;16.50;96.10;;;;;;4978221;28;20356;-83
2021/08/17 07:39:04;;;;;;;42.00;18.38;;;16.60;96.00;;;;;;4965670;28;20331;-83
2021/08/17 07:41:30;;;;;;;42.65;21.60;;;16.40;95.60;;;;;;4980556;28;20035;-82
2021/08/17 07:43:55;;;;;;;39.15;17.35;;;16.40;95.40;;;;;;4965900;28;20444;-82
2021/08/17 07:46:21;;;;;;;40.65;20.48;;;16.40;95.30;;;;;;4966554;28;20481;-83
2021/08/17 07:48:47;;;;;;;45.38;23.75;;;16.50;95.60;;;;;;4980670;28;20040;-81
2021/08/17 07:51:12;;;;;;;39.38;18.90;;;16.60;96.90;;;;;;4978614;28;20039;-83
2021/08/17 07:53:38;;;;;;;23.95;8.68;;;16.70;95.30;;;;;;5013057;28;20080;-83
2021/08/17 07:56:04;;;;;;;27.45;11.48;;;16.90;95.60;;;;;;5015431;28;20040;-83
2021/08/17 07:58:29;;;;;;;39.17;18.83;;;17.00;95.40;;;;;;5002730;28;20034;-81
2021/08/17 08:00:55;;;;;;;23.13;10.30;;;17.00;95.60;;;;;;5000181;28;20040;-83
2021/08/17 08:03:20;;;;;;;37.13;17.92;;;17.00;95.50;;;;;;4964939;28;20061;-83
2021/08/17 08:05:46;;;;;;;37.78;17.33;;;17.10;95.10;;;;;;4967563;28;20346;-83
2021/08/17 08:08:11;;;;;;;43.42;19.67;;;17.40;96.00;;;;;;4997047;28;20062;-83
2021/08/17 08:10:37;;;;;;;40.03;18.27;;;17.60;95.20;;;;;;4997468;28;20104;-83
2021/08/17 08:13:03;;;;;;;21.92;10.70;;;18.10;96.00;;;;;;4969473;28;20038;-83
2021/08/17 08:15:28;;;;;;;19.45;8.95;;;18.50;94.30;;;;;;5001480;28;20129;-83
2021/08/17 08:17:54;;;;;;;35.88;17.88;;;18.00;94.70;;;;;;4987745;28;20116;-84
2021/08/17 08:20:20;;;;;;;42.88;18.85;;;18.20;94.70;;;;;;4971153;28;20037;-83
2021/08/17 08:22:46;;;;;;;36.15;16.67;;;18.40;94.60;;;;;;4985395;28;20413;-83
2021/08/17 08:25:11;;;;;;;34.28;16.77;;;18.50;93.70;;;;;;5007621;28;20034;-84
2021/08/17 08:27:37;;;;;;;32.22;15.38;;;18.60;94.00;;;;;;5002088;28;20057;-84
2021/08/17 08:30:03;;;;;;;31.90;16.50;;;18.40;94.30;;;;;;4972411;28;20398;-82
2021/08/17 08:32:29;;;;;;;22.05;11.27;;;18.60;94.60;;;;;;4970263;28;20552;-82
2021/08/17 08:34:55;;;;;;;32.72;16.65;;;18.70;94.70;;;;;;4973208;28;20101;-83
2021/08/17 08:37:20;;;;;;;26.08;12.23;;;18.80;93.40;;;;;;4976024;28;20027;-83
2021/08/17 08:39:46;;;;;;;26.95;14.55;;;18.80;93.00;;;;;;4973952;28;20034;-84
2021/08/17 08:42:11;;;;;;;20.75;8.85;;;19.00;92.90;;;;;;4989318;28;20088;-84
2021/08/17 08:44:37;;;;;;;30.02;13.13;;;19.20;94.00;;;;;;5008049;28;20045;-83
2021/08/17 08:47:03;;;;;;;27.00;14.25;;;19.40;93.10;;;;;;4982303;28;20038;-81
2021/08/17 08:49:28;;;;;;;34.60;18.92;;;19.40;92.50;;;;;;5016131;28;20026;-83
2021/08/17 08:51:54;;;;;;;26.95;11.20;;;19.50;93.10;;;;;;5010787;28;20115;-84
2021/08/17 08:54:19;;;;;;;27.92;11.63;;;19.70;92.00;;;;;;5012244;28;20030;-83
2021/08/17 08:56:45;;;;;;;32.60;15.75;;;19.80;91.80;;;;;;4972921;28;20046;-83
2021/08/17 08:59:11;;;;;;;29.15;13.13;;;19.70;91.30;;;;;;4998138;28;20076;-83
2021/08/17 09:01:36;;;;;;;33.40;15.82;;;19.80;91.20;;;;;;4998427;28;20296;-84
2021/08/17 09:04:02;;;;;;;22.77;9.98;;;19.70;91.50;;;;;;4975402;28;20395;-84
2021/08/17 09:06:29;;;;;;;24.50;11.35;;;19.80;92.00;;;;;;5035967;28;20040;-85
2021/08/17 09:09:09;;;;;;;24.70;10.70;;;19.80;91.10;;;;;;4988432;28;20110;-83
2021/08/17 09:11:42;;;;;;;15.48;8.63;;;19.70;90.60;;;;;;5016646;28;20084;-83
2021/08/17 09:14:24;;;;;;;24.05;10.02;;;19.80;91.10;;;;;;5016755;28;20032;-83
2021/08/17 09:16:53;;;;;;;23.33;9.23;;;19.50;91.10;;;;;;5000178;28;20031;-82
2021/08/17 09:19:27;;;;;;;22.70;10.45;;;19.50;91.10;;;;;;5014695;28;20041;-83
2021/08/17 09:21:53;;;;;;;29.40;14.30;;;19.50;91.10;;;;;;5018536;28;20486;-83
2021/08/17 09:24:25;;;;;;;39.55;18.17;;;19.50;91.30;;;;;;5039857;28;20026;-84
2021/08/17 09:26:58;;;;;;;27.50;13.15;;;19.50;91.40;;;;;;5017155;28;20038;-84
2021/08/17 09:29:26;;;;;;;23.63;13.00;;;19.60;91.20;;;;;;5013125;28;20061;-83
2021/08/17 09:31:53;;;;;;;28.08;12.98;;;19.30;90.90;;;;;;4998524;28;20242;-85
2021/08/17 09:34:19;;;;;;;33.50;16.15;;;19.20;91.20;;;;;;5000714;28;20289;-84
2021/08/17 09:36:45;;;;;;;27.55;14.63;;;19.10;91.00;;;;;;4979341;28;20034;-82
2021/08/17 09:39:11;;;;;;;27.65;8.02;;;19.20;91.10;;;;;;4991943;28;20436;-85
2021/08/17 09:41:37;;;;;;;23.80;14.02;;;19.20;91.20;;;;;;5007982;28;20061;-85
2021/08/17 09:44:05;;;;;;;29.63;13.85;;;19.20;91.00;;;;;;5021418;28;20062;-85
2021/08/17 09:46:35;;;;;;;25.40;10.93;;;19.20;91.20;;;;;;5010009;28;20030;-85
2021/08/17 09:49:36;;;;;;;30.73;12.30;;;19.50;91.30;;;;;;4994895;28;20070;-84
2021/08/17 09:52:09;;;;;;;25.13;12.40;;;19.60;90.90;;;;;;4934710;28;20216;-86
2021/08/17 09:54:45;;;;;;;27.08;12.65;;;19.60;91.00;;;;;;5005048;28;20026;-86
2021/08/17 09:57:11;;;;;;;;;;;19.90;90.70;;;;;;4994374;28;20397;-85
2021/08/17 09:59:39;;;;;;;18.17;8.83;;;19.90;90.30;;;;;;4992135;28;19918;-84
2021/08/17 10:02:05;;;;;;;21.23;8.43;;;20.20;90.00;;;;;;4973081;28;20049;-85
2021/08/17 10:04:30;;;;;;;27.27;11.80;;;20.20;90.20;;;;;;4990206;28;20034;-87
2021/08/17 10:06:58;;;;;;;28.88;12.73;;;20.20;90.70;;;;;;4993947;28;20389;-86
2021/08/17 10:09:23;;;;;;;23.95;11.68;;;20.20;89.70;;;;;;5002457;28;20540;-86
2021/08/17 10:11:49;;;;;;;22.77;11.43;;;20.10;89.70;;;;;;5022160;28;20033;-84
2021/08/17 10:14:15;;;;;;;15.48;6.70;;;19.90;88.50;;;;;;4992846;28;20041;-87
2021/08/17 10:16:42;;;;;;;15.60;8.57;;;19.80;88.50;;;;;;5001099;28;20038;-84
2021/08/17 10:19:07;;;;;;;22.10;11.80;;;19.80;88.00;;;;;;4990425;28;20477;-86
2021/08/17 10:21:33;;;;;;;18.75;9.65;;;19.80;88.40;;;;;;4992592;28;20104;-85
2021/08/17 10:23:58;;;;;;;20.48;12.05;;;20.00;87.50;;;;;;4988727;28;20040;-85
2021/08/17 10:26:31;;;;;;;19.35;9.80;;;20.00;87.90;;;;;;4974132;28;20064;-84
2021/08/17 10:28:57;;;;;;;19.92;10.45;;;20.20;87.20;;;;;;4988875;28;20046;-85
2021/08/17 10:31:25;;;;;;;21.17;11.25;;;19.90;87.10;;;;;;4972928;28;20038;-82
2021/08/17 10:33:55;;;;;;;24.15;12.02;;;19.80;87.00;;;;;;5004258;28;20034;-86
2021/08/17 10:36:42;;;;;;;17.00;8.60;;;19.80;88.10;;;;;;4974125;28;20073;-86
2021/08/17 10:39:17;;;;;;;16.02;8.30;;;19.90;89.50;;;;;;5004753;28;20038;-87
2021/08/17 10:41:42;;;;;;;17.45;7.25;;;20.00;86.80;;;;;;5005681;28;20534;-86
2021/08/17 10:44:10;;;;;;;17.50;9.73;;;20.00;86.10;;;;;;4973922;28;20153;-86
2021/08/17 10:46:39;;;;;;;17.00;9.18;;;19.70;85.80;;;;;;5001193;28;20041;-87
2021/08/17 10:49:25;;;;;;;13.38;7.53;;;19.80;86.10;;;;;;4978543;28;20125;-87
2021/08/17 10:51:53;;;;;;;15.68;7.82;;;20.00;86.20;;;;;;5004825;28;20403;-85
2021/08/17 10:54:18;;;;;;;19.23;9.48;;;19.90;85.50;;;;;;4989410;28;20559;-86
2021/08/17 10:56:44;;;;;;;16.83;9.52;;;20.10;86.30;;;;;;4988159;28;20029;-86
2021/08/17 10:59:10;;;;;;;20.80;7.53;;;20.10;86.40;;;;;;4986412;28;20173;-85
2021/08/17 11:01:42;;;;;;;17.50;9.52;;;20.10;84.90;;;;;;4988768;28;20499;-86
2021/08/17 11:04:11;;;;;;;15.32;6.38;;;20.10;86.70;;;;;;4988483;28;20053;-86
2021/08/17 11:06:43;;;;;;;12.50;6.28;;;19.80;85.10;;;;;;5001823;28;20037;-85
2021/08/17 11:09:19;;;;;;;16.33;8.85;;;19.60;85.70;;;;;;5003124;28;20046;-86
2021/08/17 11:11:46;;;;;;;13.23;8.05;;;19.80;85.80;;;;;;4983807;28;20037;-82
2021/08/17 11:14:15;;;;;;;23.55;10.27;;;19.70;84.60;;;;;;4296817;28;10000173;-85
2021/08/17 11:16:43;;;;;;;16.60;8.13;;;19.70;86.20;;;;;;4973640;28;20053;-86
2021/08/17 11:19:08;;;;;;;16.50;9.10;;;19.60;85.10;;;;;;4969741;28;20683;-86
2021/08/17 11:21:45;;;;;;;15.50;7.30;;;19.80;85.90;;;;;;5002302;28;20045;-85
2021/08/17 11:24:16;;;;;;;21.10;9.15;;;19.70;85.50;;;;;;4981664;28;20026;-86
2021/08/17 11:26:43;;;;;;;16.42;8.35;;;19.90;86.70;;;;;;5003191;28;20038;-87
2021/08/17 11:29:13;;;;;;;16.88;8.38;;;20.00;86.20;;;;;;4968417;28;20581;-87
2021/08/17 11:31:46;;;;;;;17.90;8.98;;;20.00;85.30;;;;;;5003718;28;20033;-87
2021/08/17 11:34:22;;;;;;;17.13;7.88;;;19.40;86.10;;;;;;4980956;28;20102;-85
2021/08/17 11:36:50;;;;;;;;;;;19.40;86.20;;;;;;4986673;28;20040;-85
2021/08/17 11:39:21;;;;;;;17.27;8.90;;;19.40;85.80;;;;;;4996166;28;20206;-85
2021/08/17 11:41:47;;;;;;;14.45;7.50;;;19.50;85.80;;;;;;4985779;28;20035;-84
2021/08/17 11:44:13;;;;;;;18.73;8.13;;;19.40;86.10;;;;;;4971313;28;20036;-85
2021/08/17 11:46:38;;;;;;;12.45;7.30;;;19.80;86.00;;;;;;4998749;28;20039;-83
2021/08/17 11:49:23;;;;;;;19.00;7.70;;;19.70;85.90;;;;;;4988235;28;20035;-85
2021/08/17 11:52:03;;;;;;;16.17;8.43;;;19.80;85.00;;;;;;4984743;28;20076;-85
2021/08/17 11:54:30;;;;;;;16.95;8.18;;;19.50;85.70;;;;;;4983769;28;20038;-85
2021/08/17 11:57:00;;;;;;;13.95;4.75;;;19.50;85.30;;;;;;5002219;28;20509;-84
2021/08/17 11:59:26;;;;;;;16.00;8.93;;;19.80;85.00;;;;;;4998337;28;20390;-85
2021/08/17 12:01:59;;;;;;;10.82;5.68;;;19.60;85.90;;;;;;4987103;28;20037;-85
2021/08/17 12:04:24;;;;;;;11.75;6.40;;;19.70;84.90;;;;;;4986864;28;20034;-83
2021/08/17 12:07:09;;;;;;;15.07;7.70;;;19.60;84.80;;;;;;4986109;28;20299;-85
2021/08/17 12:09:39;;;;;;;12.68;6.85;;;19.60;84.40;;;;;;5024399;28;20034;-85
2021/08/17 12:12:06;;;;;;;11.38;6.32;;;20.00;84.10;;;;;;4995033;28;20065;-85
2021/08/17 12:14:31;;;;;;;13.07;7.25;;;20.00;84.10;;;;;;4993752;28;20097;-84
2021/08/17 12:16:57;;;;;;;14.50;6.43;;;20.00;84.70;;;;;;4992027;28;20065;-83
2021/08/17 12:19:23;;;;;;;14.43;5.88;;;19.80;83.20;;;;;;4974495;28;20591;-84
2021/08/17 12:21:48;;;;;;;12.95;6.38;;;19.90;83.20;;;;;;4986219;28;20118;-85
2021/08/17 12:24:27;;;;;;;8.27;4.65;;;20.10;83.40;;;;;;4971349;28;20034;-85
2021/08/17 12:26:54;;;;;;;13.30;4.78;;;20.30;82.00;;;;;;4971989;28;20677;-85
2021/08/17 12:29:23;;;;;;;11.10;4.20;;;20.40;82.70;;;;;;4991128;28;20042;-85
2021/08/17 12:31:49;;;;;;;11.95;4.97;;;20.30;81.30;;;;;;5001786;28;20137;-85